createdAt,value
2022-10-24T00:00:27.467Z,12.91
2022-10-24T00:02:53.996Z,12.88
2022-10-24T00:05:20.370Z,12.87
2022-10-24T00:07:48.949Z,12.76
2022-10-24T00:10:15.512Z,12.73
2022-10-24T00:12:43.697Z,12.69
2022-10-24T00:15:10.963Z,12.69
2022-10-24T00:17:37.333Z,12.66
2022-10-24T00:20:05.998Z,12.64
2022-10-24T00:22:32.320Z,12.64
2022-10-24T00:24:58.829Z,12.49
2022-10-24T00:27:25.169Z,12.65
2022-10-24T00:29:51.498Z,12.51
2022-10-24T00:32:17.990Z,12.53
2022-10-24T00:34:44.425Z,12.67
2022-10-24T00:37:12.273Z,12.60
2022-10-24T00:39:39.190Z,12.71
2022-10-24T00:42:05.646Z,12.62
2022-10-24T00:44:37.293Z,12.55
2022-10-24T00:47:08.210Z,12.49
2022-10-24T00:49:48.582Z,12.62
2022-10-24T00:52:18.171Z,12.71
2022-10-24T00:54:46.454Z,12.75
2022-10-24T00:57:20.204Z,12.80
2022-10-24T00:59:51.706Z,12.93
2022-10-24T01:02:18.119Z,12.92
2022-10-24T01:04:46.365Z,12.98
2022-10-24T01:07:50.642Z,13.15
2022-10-24T01:10:32.484Z,13.14
2022-10-24T01:13:19.570Z,13.26
2022-10-24T01:15:51.863Z,13.25
2022-10-24T01:18:55.014Z,13.24
2022-10-24T01:21:35.326Z,13.25
2022-10-24T01:24:23.419Z,13.26
2022-10-24T01:27:08.215Z,13.13
2022-10-24T01:30:01.600Z,13.15
2022-10-24T01:32:53.200Z,13.07
2022-10-24T01:35:43.261Z,13.00
2022-10-24T01:38:21.452Z,12.96
2022-10-24T01:40:58.091Z,12.98
2022-10-24T01:43:31.444Z,13.03
2022-10-24T01:46:03.200Z,12.81
2022-10-24T01:48:31.484Z,12.70
2022-10-24T01:51:01.843Z,12.78
2022-10-24T01:53:30.016Z,12.74
2022-10-24T01:55:57.557Z,12.66
2022-10-24T01:58:24.036Z,12.75
2022-10-24T02:00:55.097Z,12.78
2022-10-24T02:03:27.390Z,12.61
2022-10-24T02:05:57.894Z,12.55
2022-10-24T02:08:33.495Z,12.56
2022-10-24T02:11:03.629Z,12.33
2022-10-24T02:13:42.219Z,12.40
2022-10-24T02:16:09.340Z,12.40
2022-10-24T02:18:35.715Z,12.33
2022-10-24T02:21:17.708Z,12.32
2022-10-24T02:23:47.565Z,12.42
2022-10-24T02:26:24.917Z,12.24
2022-10-24T02:28:54.511Z,12.18
2022-10-24T02:31:24.990Z,12.11
2022-10-24T02:33:53.104Z,12.30
2022-10-24T02:36:27.218Z,12.28
2022-10-24T02:38:55.498Z,12.21
2022-10-24T02:41:30.401Z,12.25
2022-10-24T02:43:57.906Z,12.28
2022-10-24T02:46:25.636Z,12.27
2022-10-24T02:48:57.594Z,12.30
2022-10-24T02:51:28.094Z,12.37
2022-10-24T02:53:55.337Z,12.44
2022-10-24T02:56:21.753Z,12.50
2022-10-24T02:58:48.072Z,12.50
2022-10-24T03:01:14.589Z,12.57
2022-10-24T03:03:41.025Z,12.58
2022-10-24T03:06:07.393Z,12.57
2022-10-24T03:08:33.740Z,12.56
2022-10-24T03:11:00.436Z,12.53
2022-10-24T03:13:26.917Z,12.61
2022-10-24T03:15:53.264Z,12.61
2022-10-24T03:18:19.689Z,12.59
2022-10-24T03:20:46.663Z,12.63
2022-10-24T03:23:13.061Z,12.59
2022-10-24T03:25:39.439Z,12.61
2022-10-24T03:28:05.772Z,12.58
2022-10-24T03:30:32.129Z,12.65
2022-10-24T03:32:58.515Z,12.59
2022-10-24T03:35:25.024Z,12.63
2022-10-24T03:37:51.414Z,12.61
2022-10-24T03:40:17.945Z,12.57
2022-10-24T03:42:44.542Z,12.43
2022-10-24T03:45:11.057Z,12.37
2022-10-24T03:47:37.782Z,12.29
2022-10-24T03:50:05.684Z,12.23
2022-10-24T03:52:32.051Z,12.16
2022-10-24T03:54:58.482Z,12.09
2022-10-24T03:57:24.844Z,12.12
2022-10-24T03:59:51.171Z,11.99
2022-10-24T04:02:17.538Z,11.98
2022-10-24T04:04:43.887Z,11.86
2022-10-24T04:07:10.216Z,11.76
2022-10-24T04:09:36.585Z,11.95
2022-10-24T04:12:03.507Z,11.88
2022-10-24T04:14:29.857Z,11.87
2022-10-24T04:16:56.295Z,11.93
2022-10-24T04:19:22.629Z,11.85
2022-10-24T04:21:48.956Z,11.79
2022-10-24T04:24:15.882Z,11.86
2022-10-24T04:26:42.507Z,11.82
2022-10-24T04:29:08.829Z,11.89
2022-10-24T04:31:35.186Z,11.92
2022-10-24T04:34:01.617Z,11.80
2022-10-24T04:36:28.106Z,11.80
2022-10-24T04:38:54.638Z,11.78
2022-10-24T04:41:21.013Z,11.79
2022-10-24T04:43:47.357Z,11.92
2022-10-24T04:46:13.764Z,11.89
2022-10-24T04:48:40.153Z,11.80
2022-10-24T04:51:06.475Z,11.84
2022-10-24T04:53:32.847Z,11.82
2022-10-24T04:55:59.145Z,11.84
2022-10-24T04:58:25.530Z,11.74
2022-10-24T05:00:51.883Z,11.67
2022-10-24T05:03:19.367Z,11.77
2022-10-24T05:05:46.660Z,11.91
2022-10-24T05:08:13.174Z,11.74
2022-10-24T05:10:39.594Z,11.67
2022-10-24T05:13:05.925Z,11.71
2022-10-24T05:15:32.296Z,11.63
2022-10-24T05:17:59.056Z,11.61
2022-10-24T05:20:25.940Z,11.56
2022-10-24T05:22:52.625Z,11.58
2022-10-24T05:25:19.522Z,11.54
2022-10-24T05:27:45.953Z,11.50
2022-10-24T05:30:12.816Z,11.52
2022-10-24T05:32:39.762Z,11.55
2022-10-24T05:35:07.111Z,11.63
2022-10-24T05:37:33.559Z,11.48
2022-10-24T05:39:59.914Z,11.43
2022-10-24T05:42:26.333Z,11.49
2022-10-24T05:44:52.682Z,11.27
2022-10-24T05:47:19.015Z,11.39
2022-10-24T05:49:45.343Z,11.33
2022-10-24T05:52:11.675Z,11.25
2022-10-24T05:54:48.834Z,11.20
2022-10-24T05:57:24.425Z,11.13
2022-10-24T05:59:50.749Z,10.94
2022-10-24T06:02:19.803Z,10.89
2022-10-24T06:04:46.894Z,10.85
2022-10-24T06:07:13.276Z,10.97
2022-10-24T06:09:41.509Z,10.90
2022-10-24T06:12:09.878Z,10.81
2022-10-24T06:14:38.212Z,10.84
2022-10-24T06:17:09.660Z,10.81
2022-10-24T06:19:36.818Z,10.79
2022-10-24T06:22:03.887Z,10.70
2022-10-24T06:24:30.406Z,10.69
2022-10-24T06:26:56.718Z,10.76
2022-10-24T06:29:23.024Z,10.83
2022-10-24T06:31:49.372Z,10.80
2022-10-24T06:34:15.724Z,10.78
2022-10-24T06:36:42.192Z,10.73
2022-10-24T06:39:08.526Z,10.77
2022-10-24T06:41:34.851Z,10.66
2022-10-24T06:44:02.768Z,10.52
2022-10-24T06:46:29.312Z,10.59
2022-10-24T06:48:56.450Z,10.67
2022-10-24T06:51:23.753Z,10.52
2022-10-24T06:53:50.702Z,10.50
2022-10-24T06:56:18.229Z,10.46
2022-10-24T06:58:45.214Z,10.39
2022-10-24T07:01:14.917Z,10.46
2022-10-24T07:03:42.239Z,10.48
2022-10-24T07:06:11.491Z,10.53
2022-10-24T07:08:37.851Z,10.71
2022-10-24T07:11:04.325Z,10.77
2022-10-24T07:13:30.709Z,10.92
2022-10-24T07:15:57.127Z,11.04
2022-10-24T07:18:23.449Z,11.08
2022-10-24T07:20:49.813Z,11.15
2022-10-24T07:23:16.822Z,11.21
2022-10-24T07:25:43.802Z,11.34
2022-10-24T07:28:11.136Z,11.50
2022-10-24T07:30:39.347Z,11.55
2022-10-24T07:33:06.255Z,11.77
2022-10-24T07:35:32.578Z,11.83
2022-10-24T07:37:58.980Z,11.89
2022-10-24T07:40:25.338Z,11.93
2022-10-24T07:42:51.691Z,12.00
2022-10-24T07:45:18.069Z,12.07
2022-10-24T07:47:44.744Z,12.19
2022-10-24T07:50:11.364Z,12.24
2022-10-24T07:52:37.743Z,12.30
2022-10-24T07:55:04.705Z,12.47
2022-10-24T07:57:31.031Z,12.57
2022-10-24T07:59:57.418Z,12.64
2022-10-24T08:02:23.775Z,12.64
2022-10-24T08:04:50.108Z,12.73
2022-10-24T08:07:16.563Z,12.63
2022-10-24T08:09:45.887Z,12.64
2022-10-24T08:12:12.831Z,12.61
2022-10-24T08:14:40.820Z,12.68
2022-10-24T08:17:07.664Z,12.77
2022-10-24T08:19:34.076Z,12.71
2022-10-24T08:22:01.235Z,12.75
2022-10-24T08:24:27.839Z,12.73
2022-10-24T08:26:56.571Z,12.72
2022-10-24T08:29:23.614Z,12.87
2022-10-24T08:31:51.728Z,12.95
2022-10-24T08:34:19.538Z,12.93
2022-10-24T08:36:47.518Z,13.11
2022-10-24T08:39:13.892Z,13.09
2022-10-24T08:41:51.260Z,13.13
2022-10-24T08:44:31.364Z,13.19
2022-10-24T08:47:24.345Z,13.28
2022-10-24T08:50:24.161Z,13.29
2022-10-24T08:53:02.403Z,13.35
2022-10-24T08:55:48.691Z,13.35
2022-10-24T08:58:38.405Z,13.41
2022-10-24T09:01:33.305Z,13.43
2022-10-24T09:04:05.214Z,13.36
2022-10-24T09:06:32.174Z,13.49
2022-10-24T09:08:58.491Z,13.53
2022-10-24T09:11:49.370Z,13.51
2022-10-24T09:14:18.691Z,13.56
2022-10-24T09:16:49.409Z,13.62
2022-10-24T09:19:20.685Z,13.65
2022-10-24T09:21:48.468Z,13.74
2022-10-24T09:24:33.522Z,13.88
2022-10-24T09:27:04.335Z,13.89
2022-10-24T09:29:32.576Z,14.03
2022-10-24T09:32:00.358Z,14.06
2022-10-24T09:34:26.756Z,14.06
2022-10-24T09:36:53.268Z,14.08
2022-10-24T09:39:30.077Z,14.22
2022-10-24T09:41:58.437Z,14.24
2022-10-24T09:44:33.870Z,14.27
2022-10-24T09:47:02.434Z,14.29
2022-10-24T09:49:34.272Z,14.38
2022-10-24T09:52:05.722Z,14.38
2022-10-24T09:54:34.094Z,14.43
2022-10-24T09:59:48.244Z,14.47
2022-10-24T10:02:24.244Z,14.52
2022-10-24T10:05:18.506Z,14.58
2022-10-24T10:07:48.522Z,14.48
2022-10-24T10:10:35.690Z,14.59
2022-10-24T10:13:23.902Z,14.62
2022-10-24T10:16:27.788Z,14.59
2022-10-24T10:19:18.082Z,14.60
2022-10-24T10:22:06.154Z,14.58
2022-10-24T10:24:35.522Z,14.55
2022-10-24T10:27:02.846Z,14.60
2022-10-24T10:29:29.171Z,14.54
2022-10-24T10:32:07.880Z,14.56
2022-10-24T10:34:39.507Z,14.47
2022-10-24T10:37:32.541Z,14.51
2022-10-24T10:40:29.402Z,14.48
2022-10-24T10:43:21.166Z,14.54
2022-10-24T10:45:50.513Z,14.43
2022-10-24T10:49:00.828Z,14.48
2022-10-24T10:51:51.665Z,14.61
2022-10-24T10:54:33.177Z,14.52
2022-10-24T10:57:18.897Z,14.56
2022-10-24T11:00:00.013Z,14.60
2022-10-24T11:02:55.678Z,14.56
2022-10-24T11:05:52.716Z,14.25
2022-10-24T11:08:39.751Z,14.42
2022-10-24T11:11:13.048Z,14.55
2022-10-24T11:13:45.807Z,14.52
2022-10-24T11:16:17.642Z,14.60
2022-10-24T11:18:46.506Z,14.71
2022-10-24T11:21:14.768Z,14.70
2022-10-24T11:23:50.203Z,14.76
2022-10-24T11:26:26.836Z,14.86
2022-10-24T11:29:01.033Z,14.87
2022-10-24T11:31:36.825Z,14.99
2022-10-24T11:34:24.890Z,14.94
2022-10-24T11:37:06.068Z,15.00
2022-10-24T11:39:35.967Z,14.95
2022-10-24T11:42:12.162Z,15.00
2022-10-24T11:44:50.397Z,15.14
2022-10-24T11:47:25.970Z,15.17
2022-10-24T11:50:06.433Z,15.15
2022-10-24T11:52:38.530Z,15.24
2022-10-24T11:55:13.880Z,15.24
2022-10-24T11:57:45.012Z,15.24
2022-10-24T12:00:25.569Z,15.26
2022-10-24T12:03:25.637Z,15.28
2022-10-24T12:05:57.873Z,15.23
2022-10-24T12:08:32.722Z,15.21
2022-10-24T12:11:34.634Z,15.14
2022-10-24T12:14:34.293Z,15.17
2022-10-24T12:17:24.722Z,15.25
2022-10-24T12:19:52.234Z,15.23
2022-10-24T12:22:23.649Z,15.16
2022-10-24T12:25:03.511Z,15.08
2022-10-24T12:27:37.407Z,15.07
2022-10-24T12:30:09.693Z,15.06
2022-10-24T12:32:41.883Z,15.06
2022-10-24T12:35:31.417Z,15.08
2022-10-24T12:37:58.636Z,15.08
2022-10-24T12:40:49.565Z,15.03
2022-10-24T12:43:26.338Z,15.04
2022-10-24T12:45:52.772Z,15.13
2022-10-24T12:48:30.604Z,15.14
2022-10-24T12:50:58.511Z,15.18
2022-10-24T12:53:34.571Z,15.16
2022-10-24T12:56:06.005Z,15.16
2022-10-24T12:58:36.017Z,15.16
2022-10-24T13:01:11.339Z,15.29
2022-10-24T13:04:08.396Z,15.33
2022-10-24T13:07:04.386Z,15.31
2022-10-24T13:09:49.479Z,15.37
2022-10-24T13:12:46.045Z,15.40
2022-10-24T13:15:31.053Z,15.34
2022-10-24T13:18:24.709Z,15.49
2022-10-24T13:21:15.146Z,15.51
2022-10-24T13:23:44.686Z,15.58
2022-10-24T13:26:41.409Z,15.65
2022-10-24T13:29:30.531Z,15.57
2022-10-24T13:32:06.048Z,15.68
2022-10-24T13:34:45.309Z,15.73
2022-10-24T13:37:12.509Z,15.68
2022-10-24T13:39:48.591Z,15.73
2022-10-24T13:42:41.963Z,15.74
2022-10-24T13:45:23.288Z,15.74
2022-10-24T13:47:54.304Z,15.86
2022-10-24T13:50:28.766Z,15.84
2022-10-24T13:53:15.670Z,15.75
2022-10-24T13:55:46.578Z,15.71
2022-10-24T13:58:18.897Z,15.76
2022-10-24T14:00:53.056Z,15.73
2022-10-24T14:03:24.558Z,15.76
2022-10-24T14:05:56.952Z,15.74
2022-10-24T14:08:26.796Z,15.81
2022-10-24T14:10:54.793Z,15.83
2022-10-24T14:13:24.041Z,15.69
2022-10-24T14:15:56.934Z,15.68
2022-10-24T14:18:23.705Z,15.64
2022-10-24T14:20:55.695Z,15.70
2022-10-24T14:23:35.299Z,15.58
2022-10-24T14:26:08.527Z,15.42
2022-10-24T14:28:38.138Z,15.54
2022-10-24T14:31:23.036Z,15.58
2022-10-24T14:33:51.537Z,15.53
2022-10-24T14:36:22.373Z,15.46
2022-10-24T14:38:51.081Z,15.43
2022-10-24T14:41:19.418Z,15.43
2022-10-24T14:43:45.995Z,15.29
2022-10-24T14:46:12.329Z,15.38
2022-10-24T14:48:44.055Z,15.23
2022-10-24T14:51:18.964Z,15.28
2022-10-24T14:53:46.157Z,15.15
2022-10-24T14:56:29.003Z,15.27
2022-10-24T14:58:58.443Z,15.28
2022-10-24T15:01:25.694Z,15.29
2022-10-24T15:04:01.178Z,15.22
2022-10-24T15:06:39.361Z,15.32
2022-10-24T15:09:11.610Z,15.17
2022-10-24T15:11:43.866Z,15.25
2022-10-24T15:14:39.848Z,15.21
2022-10-24T15:17:32.699Z,15.10
2022-10-24T15:20:02.435Z,15.24
2022-10-24T15:22:32.832Z,15.31
2022-10-24T15:25:02.474Z,15.26
2022-10-24T15:27:37.340Z,15.17
2022-10-24T15:30:05.578Z,15.24
2022-10-24T15:32:31.980Z,15.27
2022-10-24T15:34:58.300Z,15.31
2022-10-24T15:37:25.388Z,15.34
2022-10-24T15:39:52.984Z,15.31
2022-10-24T15:42:22.326Z,15.38
2022-10-24T15:44:49.196Z,15.36
2022-10-24T15:47:15.614Z,15.35
2022-10-24T15:49:41.938Z,15.33
2022-10-24T15:52:12.552Z,15.39
2022-10-24T15:54:38.927Z,15.39
2022-10-24T15:57:05.562Z,15.31
2022-10-24T15:59:32.321Z,15.27
2022-10-24T16:02:02.903Z,15.19
2022-10-24T16:04:31.627Z,15.23
2022-10-24T16:06:58.257Z,15.14
2022-10-24T16:09:27.756Z,15.10
2022-10-24T16:11:54.549Z,15.01
2022-10-24T16:14:22.561Z,14.93
2022-10-24T16:16:49.026Z,14.91
2022-10-24T16:19:15.355Z,14.81
2022-10-24T16:21:41.783Z,14.70
2022-10-24T16:24:09.847Z,14.74
2022-10-24T16:26:36.834Z,14.64
2022-10-24T16:29:04.086Z,14.58
2022-10-24T16:31:31.205Z,14.40
2022-10-24T16:33:58.530Z,14.45
2022-10-24T16:36:25.438Z,14.30
2022-10-24T16:38:52.370Z,14.25
2022-10-24T16:41:22.702Z,14.30
2022-10-24T16:43:49.922Z,14.23
2022-10-24T16:46:20.071Z,14.27
2022-10-24T16:48:47.063Z,14.18
2022-10-24T16:51:16.142Z,14.14
2022-10-24T16:53:43.018Z,14.17
2022-10-24T16:56:11.886Z,14.17
2022-10-24T16:58:40.130Z,14.22
2022-10-24T17:01:10.283Z,14.25
2022-10-24T17:03:37.540Z,14.24
2022-10-24T17:06:04.615Z,14.17
2022-10-24T17:08:31.258Z,14.12
2022-10-24T17:10:58.282Z,14.14
2022-10-24T17:13:25.226Z,14.08
2022-10-24T17:15:51.655Z,14.18
2022-10-24T17:18:20.004Z,14.06
2022-10-24T17:20:47.000Z,14.17
2022-10-24T17:23:16.203Z,14.04
2022-10-24T17:25:43.870Z,14.15
2022-10-24T17:28:12.957Z,14.17
2022-10-24T17:30:39.438Z,14.29
2022-10-24T17:33:06.004Z,14.34
2022-10-24T17:35:32.548Z,14.36
2022-10-24T17:38:44.002Z,14.48
2022-10-24T17:41:25.824Z,14.50
2022-10-24T17:43:53.572Z,14.47
2022-10-24T17:46:20.571Z,14.52
2022-10-24T17:48:46.973Z,14.49
2022-10-24T17:51:17.395Z,14.55
2022-10-24T17:53:43.776Z,14.60
2022-10-24T17:58:43.801Z,14.55
2022-10-24T18:01:11.675Z,14.54
2022-10-24T18:03:38.540Z,14.52
2022-10-24T18:06:07.061Z,14.46
2022-10-24T18:08:33.873Z,14.52
2022-10-24T18:11:02.284Z,14.51
2022-10-24T18:13:29.473Z,14.35
2022-10-24T18:15:56.210Z,14.26
2022-10-24T18:18:22.765Z,14.24
2022-10-24T18:20:49.304Z,14.27
2022-10-24T18:23:15.885Z,14.21
2022-10-24T18:25:42.266Z,14.19
2022-10-24T18:28:09.451Z,14.17
2022-10-24T18:30:35.947Z,14.09
2022-10-24T18:33:02.342Z,14.02
2022-10-24T18:35:33.077Z,14.08
2022-10-24T18:38:00.332Z,14.06
2022-10-24T18:40:27.010Z,14.08
2022-10-24T18:43:05.193Z,14.07
2022-10-24T18:45:32.285Z,14.06
2022-10-24T18:47:58.957Z,14.11
2022-10-24T18:50:26.153Z,14.11
2022-10-24T18:53:01.343Z,14.08
2022-10-24T18:55:29.409Z,14.04
2022-10-24T18:57:56.060Z,14.08
2022-10-24T19:00:33.176Z,13.87
2022-10-24T19:03:12.281Z,13.99
2022-10-24T19:05:51.980Z,13.94
2022-10-24T19:08:23.898Z,13.82
2022-10-24T19:10:56.155Z,13.82
2022-10-24T19:13:24.448Z,13.76
2022-10-24T19:16:00.062Z,13.70
2022-10-24T19:18:29.374Z,13.69
2022-10-24T19:20:55.800Z,13.75
2022-10-24T19:23:22.240Z,13.60
2022-10-24T19:25:48.685Z,13.90
2022-10-24T19:28:19.298Z,13.91
2022-10-24T19:30:46.985Z,13.93
2022-10-24T19:33:14.900Z,13.95
2022-10-24T19:35:46.704Z,14.01
2022-10-24T19:38:13.780Z,14.15
2022-10-24T19:40:52.288Z,14.16
2022-10-24T19:43:20.379Z,14.17
2022-10-24T19:45:50.894Z,14.13
2022-10-24T19:48:31.669Z,14.16
2022-10-24T19:51:05.467Z,14.23
2022-10-24T19:53:35.860Z,14.18
2022-10-24T19:56:06.979Z,14.28
2022-10-24T19:58:33.662Z,14.11
2022-10-24T20:01:18.204Z,14.16
2022-10-24T20:03:46.567Z,14.27
2022-10-24T20:06:13.732Z,14.26
2022-10-24T20:08:40.494Z,14.28
2022-10-24T20:11:07.949Z,14.20
2022-10-24T20:13:34.788Z,14.13
2022-10-24T20:16:04.348Z,14.09
2022-10-24T20:18:32.198Z,14.07
2022-10-24T20:20:59.051Z,13.98
2022-10-24T20:23:26.065Z,13.87
2022-10-24T20:26:01.170Z,13.82
2022-10-24T20:28:27.833Z,13.89
2022-10-24T20:30:54.718Z,13.82
2022-10-24T20:33:21.229Z,13.61
2022-10-24T20:35:47.687Z,13.42
2022-10-24T20:38:14.008Z,13.39
2022-10-24T20:40:40.356Z,13.29
2022-10-24T20:43:07.274Z,13.43
2022-10-24T20:45:38.551Z,13.21
2022-10-24T20:48:05.165Z,13.26
2022-10-24T20:50:31.761Z,13.25
2022-10-24T20:52:58.086Z,13.24
2022-10-24T20:55:39.232Z,13.17
2022-10-24T20:58:13.102Z,13.15
2022-10-24T21:03:14.279Z,13.06
2022-10-24T21:05:40.758Z,13.03
2022-10-24T21:08:07.195Z,13.03
2022-10-24T21:10:33.569Z,12.90
2022-10-24T21:12:59.931Z,12.92
2022-10-24T21:15:26.264Z,13.00
2022-10-24T21:17:52.642Z,12.97
2022-10-24T21:20:19.253Z,12.85
2022-10-24T21:22:45.650Z,12.80
2022-10-24T21:25:12.013Z,12.85
2022-10-24T21:27:38.347Z,12.77
2022-10-24T21:30:05.193Z,12.79
2022-10-24T21:32:31.539Z,12.84
2022-10-24T21:34:57.864Z,12.85
2022-10-24T21:37:24.205Z,12.88
2022-10-24T21:39:50.583Z,12.93
2022-10-24T21:42:16.928Z,12.92
2022-10-24T21:44:43.357Z,12.90
2022-10-24T21:47:09.717Z,12.92
2022-10-24T21:49:36.367Z,12.93
2022-10-24T21:52:03.060Z,12.93
2022-10-24T21:54:29.793Z,12.87
2022-10-24T21:56:56.189Z,12.94
2022-10-24T21:59:23.073Z,12.86
2022-10-24T22:01:51.701Z,12.91
2022-10-24T22:04:18.719Z,12.88
2022-10-24T22:06:46.156Z,12.87
2022-10-24T22:09:16.628Z,12.88
2022-10-24T22:11:44.121Z,12.77
2022-10-24T22:14:12.826Z,12.80
2022-10-24T22:16:40.251Z,12.72
2022-10-24T22:19:07.342Z,12.67
2022-10-24T22:21:39.599Z,12.59
2022-10-24T22:24:14.937Z,12.49
2022-10-24T22:26:42.101Z,12.53
2022-10-24T22:29:10.568Z,12.38
2022-10-24T22:31:37.449Z,12.48
2022-10-24T22:34:04.355Z,12.45
2022-10-24T22:36:46.777Z,12.32
2022-10-24T22:39:16.389Z,12.30
2022-10-24T22:41:43.620Z,12.26
2022-10-24T22:44:11.704Z,12.14
2022-10-24T22:47:09.617Z,12.09
2022-10-24T22:50:01.841Z,12.01
2022-10-24T22:52:28.579Z,11.82
2022-10-24T22:54:55.333Z,11.90
2022-10-24T22:57:22.109Z,12.02
2022-10-24T22:59:48.919Z,11.94
2022-10-24T23:02:36.384Z,11.91
2022-10-24T23:05:07.470Z,11.80
2022-10-24T23:07:49.531Z,11.97
2022-10-24T23:10:22.696Z,11.91
2022-10-24T23:12:50.235Z,11.81
2022-10-24T23:15:19.254Z,11.91
2022-10-24T23:17:46.970Z,11.89
2022-10-24T23:20:36.711Z,11.75
2022-10-24T23:23:16.323Z,11.73
2022-10-24T23:25:52.314Z,11.60
2022-10-24T23:28:30.405Z,11.57
2022-10-24T23:30:57.135Z,11.60
2022-10-24T23:33:29.297Z,11.61
2022-10-24T23:35:59.449Z,11.69
2022-10-24T23:38:26.835Z,11.78
2022-10-24T23:40:53.434Z,12.03
2022-10-24T23:43:21.965Z,11.96
2022-10-24T23:46:02.002Z,12.02
2022-10-24T23:49:04.998Z,12.07
2022-10-24T23:51:40.751Z,12.10
2022-10-24T23:54:12.183Z,12.07
2022-10-24T23:56:39.174Z,12.11
2022-10-24T23:59:06.058Z,12.10
